Abeytas, New Mexico
Current Conditions -  °F | °C
As of 7:55 AM on Tuesday 21 Oct 2014 (Local Time) from KE80 Reporting Station
Overcast Overcast  
Wind Chill: 46°   Ceiling: 5000
Heat Index: 46°   Visibility: 10mi
Dew Point: 45°   Wind: 3mph
Humidity: 97%   Direction: 160°SSE
Pressure: 30.16"   Gusts: NA
Location:  34.4828°N, 106.804°W
Report Text: KE80 211355Z AUTO 16003KT 10SM OVC050 08/07 A3016 RMK AO2 T00770072
Loading
Personal Weather Stations






























Interactive Weather Map
Tropical Storm Tracking
New forecast layout! Learn more

10-Day Weather Forecast

Advertisements
Track Severe Weather on mobile